createdAt,value
2018-12-25T00:02:16.117Z,22.86
2018-12-25T00:04:42.798Z,22.85
2018-12-25T00:07:09.462Z,22.87
2018-12-25T00:09:36.107Z,22.84
2018-12-25T00:12:02.750Z,22.83
2018-12-25T00:14:29.397Z,22.86
2018-12-25T00:16:56.042Z,22.84
2018-12-25T00:19:25.664Z,22.83
2018-12-25T00:21:52.312Z,22.80
2018-12-25T00:24:18.951Z,22.84
2018-12-25T00:26:45.604Z,22.83
2018-12-25T00:29:12.246Z,22.82
2018-12-25T00:31:38.929Z,22.80
2018-12-25T00:34:05.572Z,22.83
2018-12-25T00:36:32.208Z,22.79
2018-12-25T00:38:58.849Z,22.76
2018-12-25T00:41:25.504Z,22.77
2018-12-25T00:43:52.141Z,22.79
2018-12-25T00:46:18.790Z,22.76
2018-12-25T00:48:45.418Z,22.78
2018-12-25T00:51:12.065Z,22.78
2018-12-25T00:53:38.707Z,22.79
2018-12-25T00:56:05.361Z,22.77
2018-12-25T00:58:32.009Z,22.80
2018-12-25T01:00:58.677Z,22.78
2018-12-25T01:03:25.343Z,22.79
2018-12-25T01:05:51.976Z,22.78
2018-12-25T01:08:20.007Z,22.79
2018-12-25T01:10:45.279Z,22.75
2018-12-25T01:13:11.916Z,22.77
2018-12-25T01:15:38.578Z,22.77
2018-12-25T01:18:05.215Z,22.75
2018-12-25T01:20:31.874Z,22.73
2018-12-25T01:22:58.530Z,22.75
2018-12-25T01:25:25.175Z,22.73
2018-12-25T01:27:51.821Z,22.74
2018-12-25T01:30:18.478Z,22.73
2018-12-25T01:32:45.130Z,22.72
2018-12-25T01:35:11.782Z,22.72
2018-12-25T01:37:38.436Z,22.72
2018-12-25T01:40:05.086Z,22.73
2018-12-25T01:42:31.734Z,22.70
2018-12-25T01:44:58.368Z,22.71
2018-12-25T01:47:25.043Z,22.66
2018-12-25T01:49:51.682Z,22.67
2018-12-25T01:52:18.340Z,22.69
2018-12-25T01:54:44.993Z,22.68
2018-12-25T01:57:11.641Z,22.68
2018-12-25T01:59:38.279Z,22.69
2018-12-25T02:02:04.921Z,22.65
2018-12-25T02:04:31.620Z,22.66
2018-12-25T02:06:58.309Z,22.68
2018-12-25T02:09:24.973Z,22.66
2018-12-25T02:11:51.598Z,22.64
2018-12-25T02:14:18.258Z,22.64
2018-12-25T02:16:44.889Z,22.61
2018-12-25T02:19:11.544Z,22.58
2018-12-25T02:21:38.195Z,22.62
2018-12-25T02:24:04.978Z,22.62
2018-12-25T02:26:31.632Z,22.63
2018-12-25T02:28:58.274Z,22.64
2018-12-25T02:31:24.925Z,22.63
2018-12-25T02:33:51.571Z,22.65
2018-12-25T02:36:18.221Z,22.69
2018-12-25T02:38:44.866Z,22.67
2018-12-25T02:41:11.597Z,22.68
2018-12-25T02:43:38.169Z,22.68
2018-12-25T02:46:04.805Z,22.70
2018-12-25T02:48:31.462Z,22.68
2018-12-25T02:50:58.111Z,22.70
2018-12-25T02:53:24.768Z,22.72
2018-12-25T02:55:51.464Z,22.74
2018-12-25T02:58:18.106Z,22.72
2018-12-25T03:00:46.476Z,22.70
2018-12-25T03:03:11.414Z,22.69
2018-12-25T03:05:38.047Z,22.73
2018-12-25T03:08:04.743Z,22.72
2018-12-25T03:10:31.445Z,22.74
2018-12-25T03:12:58.077Z,22.72
2018-12-25T03:15:24.749Z,22.71
2018-12-25T03:17:51.395Z,22.71
2018-12-25T03:20:18.094Z,22.74
2018-12-25T03:22:44.792Z,22.70
2018-12-25T03:25:11.438Z,22.71
2018-12-25T03:27:38.099Z,22.75
2018-12-25T03:30:04.745Z,22.64
2018-12-25T03:32:31.475Z,22.39
2018-12-25T03:34:58.088Z,22.18
2018-12-25T03:37:24.739Z,22.08
2018-12-25T03:39:51.398Z,22.29
2018-12-25T03:42:18.039Z,22.33
2018-12-25T03:44:44.687Z,22.38
2018-12-25T03:47:11.321Z,22.47
2018-12-25T03:49:38.019Z,22.54
2018-12-25T03:52:04.665Z,22.56
2018-12-25T03:54:31.326Z,22.58
2018-12-25T03:56:57.975Z,22.60
2018-12-25T03:59:24.674Z,22.63
2018-12-25T04:01:51.262Z,22.65
2018-12-25T04:04:17.955Z,22.67
2018-12-25T04:06:44.598Z,22.68
2018-12-25T04:09:11.256Z,22.71
2018-12-25T04:11:37.912Z,22.74
2018-12-25T04:14:04.623Z,22.74
2018-12-25T04:16:31.264Z,22.76
2018-12-25T04:18:57.904Z,22.78
2018-12-25T04:21:24.565Z,22.77
2018-12-25T04:23:51.209Z,22.76
2018-12-25T04:26:17.851Z,22.73
2018-12-25T04:28:47.592Z,22.73
2018-12-25T04:31:14.365Z,22.72
2018-12-25T04:33:41.008Z,22.70
2018-12-25T04:36:07.661Z,22.69
2018-12-25T04:38:34.301Z,22.68
2018-12-25T04:41:01.011Z,22.71
2018-12-25T04:43:27.662Z,22.70
2018-12-25T04:45:54.302Z,22.70
2018-12-25T04:48:20.966Z,22.67
2018-12-25T04:50:47.654Z,22.67
2018-12-25T04:53:14.294Z,22.67
2018-12-25T04:55:40.982Z,22.68
2018-12-25T04:58:07.634Z,22.67
2018-12-25T05:00:34.284Z,22.66
2018-12-25T05:03:00.940Z,22.67
2018-12-25T05:05:27.582Z,22.67
2018-12-25T05:07:54.288Z,22.68
2018-12-25T05:10:20.938Z,22.66
2018-12-25T05:12:47.599Z,22.65
2018-12-25T05:15:14.238Z,22.67
2018-12-25T05:17:40.882Z,22.67
2018-12-25T05:20:07.541Z,22.67
2018-12-25T05:22:34.230Z,22.64
2018-12-25T05:25:01.002Z,22.64
2018-12-25T05:27:27.552Z,22.65
2018-12-25T05:29:54.247Z,22.66
2018-12-25T05:32:20.899Z,22.67
2018-12-25T05:34:47.541Z,22.65
2018-12-25T05:37:14.229Z,22.64
2018-12-25T05:39:40.873Z,22.66
2018-12-25T05:42:07.518Z,22.61
2018-12-25T05:44:34.164Z,22.65
2018-12-25T05:47:00.819Z,22.61
2018-12-25T05:49:27.473Z,22.61
2018-12-25T05:51:54.165Z,22.62
2018-12-25T05:54:20.806Z,22.67
2018-12-25T05:56:47.445Z,22.64
2018-12-25T05:59:14.100Z,22.66
2018-12-25T06:01:40.759Z,22.65
2018-12-25T06:04:07.403Z,22.64
2018-12-25T06:06:35.387Z,22.65
2018-12-25T06:09:02.040Z,22.63
2018-12-25T06:11:28.696Z,22.64
2018-12-25T06:13:55.333Z,22.67
2018-12-25T06:16:22.028Z,22.66
2018-12-25T06:18:48.708Z,22.66
2018-12-25T06:21:15.404Z,22.64
2018-12-25T06:23:42.042Z,22.66
2018-12-25T06:26:08.715Z,22.64
2018-12-25T06:28:35.365Z,22.64
2018-12-25T06:31:02.070Z,22.64
2018-12-25T06:33:28.722Z,22.66
2018-12-25T06:35:55.385Z,22.67
2018-12-25T06:38:22.094Z,22.68
2018-12-25T06:40:48.731Z,22.67
2018-12-25T06:43:15.368Z,22.66
2018-12-25T06:45:42.037Z,22.68
2018-12-25T06:48:08.696Z,22.66
2018-12-25T06:50:35.338Z,22.67
2018-12-25T06:53:01.989Z,22.66
2018-12-25T06:55:28.694Z,22.68
2018-12-25T06:57:55.390Z,22.66
2018-12-25T07:00:22.034Z,22.69
2018-12-25T07:02:48.721Z,22.67
2018-12-25T07:05:15.374Z,22.69
2018-12-25T07:07:42.005Z,22.68
2018-12-25T07:10:08.644Z,22.66
2018-12-25T07:12:35.281Z,22.67
2018-12-25T07:15:01.935Z,22.68
2018-12-25T07:17:28.574Z,22.69
2018-12-25T07:19:55.262Z,22.69
2018-12-25T07:22:21.901Z,22.72
2018-12-25T07:24:48.536Z,22.68
2018-12-25T07:27:15.201Z,22.71
2018-12-25T07:29:41.840Z,22.71
2018-12-25T07:32:08.493Z,22.71
2018-12-25T07:34:35.176Z,22.69
2018-12-25T07:37:01.821Z,22.68
2018-12-25T07:39:28.466Z,22.70
2018-12-25T07:41:55.105Z,22.68
2018-12-25T07:44:21.895Z,22.70
2018-12-25T07:46:51.400Z,22.70
2018-12-25T07:49:18.069Z,22.72
2018-12-25T07:51:44.719Z,22.71
2018-12-25T07:54:11.376Z,22.72
2018-12-25T07:56:38.017Z,22.69
2018-12-25T07:59:04.662Z,22.72
2018-12-25T08:01:31.304Z,22.71
2018-12-25T08:03:57.957Z,22.69
2018-12-25T08:06:24.596Z,22.70
2018-12-25T08:08:51.297Z,22.71
2018-12-25T08:11:17.934Z,22.72
2018-12-25T08:13:44.630Z,22.73
2018-12-25T08:16:11.281Z,22.71
2018-12-25T08:18:37.931Z,22.69
2018-12-25T08:21:04.634Z,22.65
2018-12-25T08:23:31.283Z,22.60
2018-12-25T08:25:57.939Z,22.63
2018-12-25T08:28:24.625Z,22.63
2018-12-25T08:30:51.355Z,22.64
2018-12-25T08:33:18.051Z,22.68
2018-12-25T08:35:44.702Z,22.71
2018-12-25T08:38:11.340Z,22.74
2018-12-25T08:40:37.983Z,22.77
2018-12-25T08:43:04.634Z,22.80
2018-12-25T08:45:31.282Z,22.81
2018-12-25T08:47:58.055Z,22.83
2018-12-25T08:50:24.693Z,22.83
2018-12-25T08:52:51.396Z,22.84
2018-12-25T08:55:18.096Z,22.86
2018-12-25T08:57:44.738Z,22.85
2018-12-25T09:00:11.388Z,22.86
2018-12-25T09:02:38.041Z,22.88
2018-12-25T09:05:04.688Z,22.86
2018-12-25T09:07:31.328Z,22.85
2018-12-25T09:09:57.976Z,22.85
2018-12-25T09:12:24.670Z,22.87
2018-12-25T09:14:51.334Z,22.89
2018-12-25T09:17:18.026Z,22.89
2018-12-25T09:19:44.661Z,22.88
2018-12-25T09:22:11.348Z,22.89
2018-12-25T09:24:38.044Z,22.92
2018-12-25T09:27:04.705Z,22.93
2018-12-25T09:29:31.410Z,22.92
2018-12-25T09:31:58.095Z,22.94
2018-12-25T09:34:24.740Z,22.93
2018-12-25T09:36:51.427Z,22.97
2018-12-25T09:39:18.122Z,22.97
2018-12-25T09:41:44.794Z,22.98
2018-12-25T09:44:11.466Z,22.97
2018-12-25T09:46:38.185Z,23.00
2018-12-25T09:49:04.832Z,23.00
2018-12-25T09:51:31.522Z,23.00
2018-12-25T09:53:58.161Z,23.01
2018-12-25T09:56:24.809Z,23.03
2018-12-25T09:58:51.457Z,23.04
2018-12-25T10:01:18.104Z,23.04
2018-12-25T10:03:44.757Z,23.03
2018-12-25T10:06:11.454Z,23.04
2018-12-25T10:08:38.149Z,23.06
2018-12-25T10:11:04.874Z,23.06
2018-12-25T10:13:31.514Z,23.07
2018-12-25T10:15:58.169Z,23.06
2018-12-25T10:18:24.865Z,23.12
2018-12-25T10:20:51.511Z,23.11
2018-12-25T10:23:18.245Z,23.13
2018-12-25T10:25:44.965Z,23.14
2018-12-25T10:28:11.597Z,23.13
2018-12-25T10:30:38.332Z,23.18
2018-12-25T10:33:05.027Z,23.21
2018-12-25T10:35:31.671Z,23.18
2018-12-25T10:37:58.326Z,23.21
2018-12-25T10:40:24.964Z,23.21
2018-12-25T10:42:51.615Z,23.22
2018-12-25T10:45:18.267Z,23.20
2018-12-25T10:50:11.297Z,23.23
2018-12-25T10:52:37.876Z,23.20
2018-12-25T10:55:04.563Z,23.26
2018-12-25T10:57:32.437Z,23.24
2018-12-25T10:59:57.873Z,23.19
2018-12-25T11:02:24.525Z,23.21
2018-12-25T11:04:51.172Z,23.24
2018-12-25T11:07:17.824Z,23.21
2018-12-25T11:09:44.458Z,23.17
2018-12-25T11:12:11.150Z,23.14
2018-12-25T11:14:37.797Z,23.13
2018-12-25T11:17:04.445Z,23.11
2018-12-25T11:19:31.146Z,23.10
2018-12-25T11:21:57.783Z,23.07
2018-12-25T11:24:24.424Z,23.10
2018-12-25T11:26:51.079Z,23.07
2018-12-25T11:29:17.722Z,23.07
2018-12-25T11:31:44.371Z,23.04
2018-12-25T11:34:11.048Z,22.98
2018-12-25T11:36:37.740Z,22.90
2018-12-25T11:39:04.400Z,22.54
2018-12-25T11:41:31.097Z,22.38
2018-12-25T11:43:57.747Z,22.48
2018-12-25T11:46:24.386Z,22.65
2018-12-25T11:48:51.089Z,22.67
2018-12-25T11:51:17.740Z,22.69
2018-12-25T11:53:44.435Z,22.78
2018-12-25T11:56:11.074Z,22.83
2018-12-25T11:58:37.776Z,22.84
2018-12-25T12:01:04.425Z,22.89
2018-12-25T12:03:31.132Z,22.93
2018-12-25T12:05:57.775Z,22.96
2018-12-25T12:08:24.413Z,23.00
2018-12-25T12:10:51.109Z,22.99
2018-12-25T12:13:17.807Z,22.98
2018-12-25T12:15:44.444Z,22.99
2018-12-25T12:18:11.134Z,22.98
2018-12-25T12:20:37.773Z,22.98
2018-12-25T12:23:04.483Z,22.97
2018-12-25T12:25:31.131Z,22.95
2018-12-25T12:27:57.768Z,22.96
2018-12-25T12:30:24.471Z,22.97
2018-12-25T12:32:51.157Z,22.97
2018-12-25T12:35:17.811Z,22.98
2018-12-25T12:37:44.448Z,23.01
2018-12-25T12:40:11.089Z,22.99
2018-12-25T12:42:37.736Z,22.98
2018-12-25T12:45:04.429Z,22.97
2018-12-25T12:47:31.079Z,22.99
2018-12-25T12:49:57.850Z,23.00
2018-12-25T12:52:24.558Z,22.97
2018-12-25T12:54:51.201Z,22.97
2018-12-25T12:57:17.901Z,22.95
2018-12-25T12:59:44.549Z,22.97
2018-12-25T13:02:11.239Z,22.99
2018-12-25T13:04:37.884Z,22.98
2018-12-25T13:07:04.604Z,22.96
2018-12-25T13:09:31.251Z,22.95
2018-12-25T13:11:57.896Z,22.95
2018-12-25T13:14:24.588Z,22.93
2018-12-25T13:16:51.225Z,22.95
2018-12-25T13:19:17.916Z,22.94
2018-12-25T13:21:44.603Z,22.96
2018-12-25T13:24:11.252Z,22.95
2018-12-25T13:26:37.938Z,22.95
2018-12-25T13:29:06.008Z,22.93
2018-12-25T13:31:31.286Z,22.91
2018-12-25T13:33:57.954Z,22.89
2018-12-25T13:36:24.622Z,22.90
2018-12-25T13:38:51.289Z,22.92
2018-12-25T13:41:17.929Z,22.89
2018-12-25T13:43:44.585Z,22.88
2018-12-25T13:46:11.309Z,22.87
2018-12-25T13:48:38.010Z,22.84
2018-12-25T13:51:04.658Z,22.86
2018-12-25T13:53:31.370Z,22.83
2018-12-25T13:55:58.024Z,22.85
2018-12-25T13:58:24.720Z,22.83
2018-12-25T14:00:51.408Z,22.85
2018-12-25T14:03:18.101Z,22.83
2018-12-25T14:05:44.741Z,22.84
2018-12-25T14:08:11.488Z,22.83
2018-12-25T14:10:38.133Z,22.83
2018-12-25T14:13:04.809Z,22.84
2018-12-25T14:15:31.463Z,22.81
2018-12-25T14:17:58.117Z,22.82
2018-12-25T14:20:24.767Z,22.81
2018-12-25T14:22:51.404Z,22.80
2018-12-25T14:25:18.054Z,22.81
2018-12-25T14:27:44.693Z,22.78
2018-12-25T14:30:11.496Z,22.77
2018-12-25T14:32:38.134Z,22.79
2018-12-25T14:35:04.785Z,22.70
2018-12-25T14:37:31.425Z,22.66
2018-12-25T14:39:58.079Z,22.68
2018-12-25T14:42:24.721Z,22.70
2018-12-25T14:44:51.448Z,22.70
2018-12-25T14:47:18.181Z,22.71
2018-12-25T14:49:44.727Z,22.74
2018-12-25T14:52:11.377Z,22.77
2018-12-25T14:54:38.016Z,22.79
2018-12-25T14:57:04.821Z,22.78
2018-12-25T14:59:31.465Z,22.79
2018-12-25T15:01:58.159Z,22.80
2018-12-25T15:04:24.840Z,22.84
2018-12-25T15:06:51.481Z,22.82
2018-12-25T15:09:18.123Z,22.87
2018-12-25T15:11:44.830Z,22.85
2018-12-25T15:14:11.481Z,22.87
2018-12-25T15:16:38.174Z,22.90
2018-12-25T15:19:04.811Z,22.91
2018-12-25T15:21:31.506Z,22.91
2018-12-25T15:23:58.142Z,22.91
2018-12-25T15:26:24.842Z,22.94
2018-12-25T15:28:51.485Z,22.92
2018-12-25T15:31:18.122Z,22.95
2018-12-25T15:33:44.826Z,22.96
2018-12-25T15:36:11.485Z,22.92
2018-12-25T15:38:38.174Z,22.92
2018-12-25T15:41:04.870Z,22.90
2018-12-25T15:43:31.516Z,22.87
2018-12-25T15:45:58.214Z,22.89
2018-12-25T15:48:24.863Z,22.89
2018-12-25T15:50:51.512Z,22.88
2018-12-25T15:53:18.196Z,22.88
2018-12-25T15:55:44.890Z,22.84
2018-12-25T15:58:11.540Z,22.88
2018-12-25T16:00:38.235Z,22.84
2018-12-25T16:03:04.940Z,22.82
2018-12-25T16:05:31.589Z,22.77
2018-12-25T16:07:58.281Z,22.74
2018-12-25T16:10:24.919Z,22.70
2018-12-25T16:12:51.616Z,22.69
2018-12-25T16:15:18.258Z,22.69
2018-12-25T16:17:44.913Z,22.66
2018-12-25T16:20:11.560Z,22.69
2018-12-25T16:22:38.209Z,22.68
2018-12-25T16:25:04.903Z,22.71
2018-12-25T16:27:31.546Z,22.74
2018-12-25T16:29:58.187Z,22.79
2018-12-25T16:32:24.885Z,22.78
2018-12-25T16:34:51.534Z,22.79
2018-12-25T16:37:18.175Z,22.79
2018-12-25T16:39:44.861Z,22.83
2018-12-25T16:42:11.528Z,22.79
2018-12-25T16:44:38.233Z,22.79
2018-12-25T16:47:04.876Z,22.77
2018-12-25T16:49:31.587Z,22.74
2018-12-25T16:51:58.300Z,22.73
2018-12-25T16:54:24.955Z,22.73
2018-12-25T16:56:51.579Z,22.71
2018-12-25T16:59:18.264Z,22.71
2018-12-25T17:01:44.904Z,22.70
2018-12-25T17:04:11.699Z,22.69
2018-12-25T17:06:38.346Z,22.67
2018-12-25T17:09:04.989Z,22.68
2018-12-25T17:11:31.645Z,22.66
2018-12-25T17:13:58.299Z,22.64
2018-12-25T17:16:24.936Z,22.63
2018-12-25T17:18:51.589Z,22.65
2018-12-25T17:21:18.227Z,22.63
2018-12-25T17:23:44.870Z,22.64
2018-12-25T17:26:11.524Z,22.64
2018-12-25T17:28:38.161Z,22.64
2018-12-25T17:31:04.805Z,22.64
2018-12-25T17:33:31.464Z,22.63
2018-12-25T17:35:58.097Z,22.61
2018-12-25T17:38:24.745Z,22.63
2018-12-25T17:40:51.397Z,22.59
2018-12-25T17:43:18.048Z,22.61
2018-12-25T17:45:44.680Z,22.61
2018-12-25T17:48:11.338Z,22.61
2018-12-25T17:50:37.978Z,22.59
2018-12-25T17:53:06.178Z,22.52
2018-12-25T17:55:31.301Z,22.44
2018-12-25T17:57:57.950Z,22.51
2018-12-25T18:00:24.591Z,22.45
2018-12-25T18:02:51.230Z,22.50
2018-12-25T18:05:17.886Z,22.52
2018-12-25T18:07:44.534Z,22.55
2018-12-25T18:10:11.184Z,22.57
2018-12-25T18:12:37.828Z,22.58
2018-12-25T18:15:04.473Z,22.63
2018-12-25T18:17:31.144Z,22.65
2018-12-25T18:19:57.790Z,22.66
2018-12-25T18:22:26.178Z,22.68
2018-12-25T18:24:51.066Z,22.69
2018-12-25T18:27:17.725Z,22.71
2018-12-25T18:29:44.372Z,22.73
2018-12-25T18:32:11.005Z,22.73
2018-12-25T18:34:37.655Z,22.74
2018-12-25T18:37:04.297Z,22.73
2018-12-25T18:39:30.934Z,22.75
2018-12-25T18:41:57.592Z,22.70
2018-12-25T18:44:24.242Z,22.62
2018-12-25T18:46:50.877Z,22.61
2018-12-25T18:49:17.520Z,22.61
2018-12-25T18:51:44.162Z,22.55
2018-12-25T18:54:10.804Z,22.55
2018-12-25T18:56:37.451Z,22.60
2018-12-25T18:59:04.092Z,22.60
2018-12-25T19:01:30.730Z,22.62
2018-12-25T19:03:57.377Z,22.61
2018-12-25T19:06:24.270Z,22.66
2018-12-25T19:08:50.793Z,22.66
2018-12-25T19:11:17.431Z,22.65
2018-12-25T19:13:44.089Z,22.65
2018-12-25T19:16:10.733Z,22.69
2018-12-25T19:18:37.391Z,22.67
2018-12-25T19:21:04.034Z,22.67
2018-12-25T19:23:30.669Z,22.71
2018-12-25T19:25:57.324Z,22.69
2018-12-25T19:28:23.970Z,22.71
2018-12-25T19:30:50.607Z,22.70
2018-12-25T19:33:17.267Z,22.66
2018-12-25T19:35:43.910Z,22.57
2018-12-25T19:38:10.551Z,22.54
2018-12-25T19:40:37.200Z,22.52
2018-12-25T19:43:03.835Z,22.51
2018-12-25T19:45:30.477Z,22.54
2018-12-25T19:47:57.144Z,22.57
2018-12-25T19:50:24.449Z,22.61
2018-12-25T19:52:50.478Z,22.61
2018-12-25T19:55:17.121Z,22.60
2018-12-25T19:57:43.757Z,22.66
2018-12-25T20:00:10.406Z,22.69
2018-12-25T20:02:37.050Z,22.65
2018-12-25T20:05:03.692Z,22.68
2018-12-25T20:07:30.328Z,22.52
2018-12-25T20:09:56.973Z,22.21
2018-12-25T20:12:23.604Z,21.95
2018-12-25T20:14:50.250Z,21.98
2018-12-25T20:17:16.902Z,22.15
2018-12-25T20:19:43.548Z,22.17
2018-12-25T20:22:10.192Z,22.24
2018-12-25T20:24:36.837Z,22.34
2018-12-25T20:27:03.496Z,22.35
2018-12-25T20:29:30.143Z,22.40
2018-12-25T20:31:56.801Z,22.41
2018-12-25T20:34:23.549Z,22.44
2018-12-25T20:36:50.101Z,22.43
2018-12-25T20:39:16.753Z,22.46
2018-12-25T20:41:43.398Z,22.47
2018-12-25T20:44:10.084Z,22.51
2018-12-25T20:46:36.731Z,22.52
2018-12-25T20:49:03.373Z,22.54
2018-12-25T20:51:30.013Z,22.53
2018-12-25T20:53:56.666Z,22.53
2018-12-25T20:56:23.312Z,22.51
2018-12-25T20:58:49.955Z,22.46
2018-12-25T21:01:16.602Z,22.42
2018-12-25T21:03:43.242Z,22.43
2018-12-25T21:06:09.900Z,22.37
2018-12-25T21:08:36.563Z,22.39
2018-12-25T21:11:03.209Z,22.42
2018-12-25T21:13:29.846Z,22.44
2018-12-25T21:15:59.800Z,22.45
2018-12-25T21:18:26.443Z,22.48
2018-12-25T21:20:53.082Z,22.48
2018-12-25T21:23:19.750Z,22.52
2018-12-25T21:25:46.389Z,22.52
2018-12-25T21:28:13.026Z,22.52
2018-12-25T21:30:39.680Z,22.54
2018-12-25T21:33:06.320Z,22.53
2018-12-25T21:35:32.960Z,22.55
2018-12-25T21:37:59.606Z,22.57
2018-12-25T21:40:26.250Z,22.60
2018-12-25T21:42:52.983Z,22.54
2018-12-25T21:45:19.623Z,22.48
2018-12-25T21:47:46.276Z,22.44
2018-12-25T21:50:12.950Z,22.40
2018-12-25T21:52:39.647Z,22.38
2018-12-25T21:55:06.251Z,22.38
2018-12-25T21:57:32.896Z,22.37
2018-12-25T21:59:59.540Z,22.43
2018-12-25T22:02:26.197Z,22.43
2018-12-25T22:04:52.829Z,22.45
2018-12-25T22:07:20.739Z,22.45
2018-12-25T22:09:46.127Z,22.49
2018-12-25T22:12:12.770Z,22.49
2018-12-25T22:14:39.812Z,22.48
2018-12-25T22:17:06.500Z,22.51
2018-12-25T22:19:33.137Z,22.54
2018-12-25T22:21:59.797Z,22.54
2018-12-25T22:24:26.447Z,22.54
2018-12-25T22:26:53.150Z,22.53
2018-12-25T22:29:19.831Z,22.50
2018-12-25T22:31:46.438Z,22.42
2018-12-25T22:34:13.102Z,22.42
2018-12-25T22:36:39.800Z,22.36
2018-12-25T22:39:06.445Z,22.38
2018-12-25T22:41:33.101Z,22.39
2018-12-25T22:43:59.798Z,22.41
2018-12-25T22:46:26.454Z,22.43
2018-12-25T22:48:53.162Z,22.47
2018-12-25T22:51:19.804Z,22.47
2018-12-25T22:53:46.447Z,22.51
2018-12-25T22:56:13.106Z,22.52
2018-12-25T22:58:39.748Z,22.51
2018-12-25T23:01:06.472Z,22.51
2018-12-25T23:03:33.086Z,22.53
2018-12-25T23:05:59.747Z,22.52
2018-12-25T23:08:26.382Z,22.56
2018-12-25T23:10:53.037Z,22.54
2018-12-25T23:13:19.686Z,22.54
2018-12-25T23:15:46.330Z,22.48
2018-12-25T23:18:13.036Z,22.41
2018-12-25T23:20:39.732Z,22.37
2018-12-25T23:23:06.369Z,22.37
2018-12-25T23:25:33.062Z,22.36
2018-12-25T23:27:59.759Z,22.38
2018-12-25T23:30:26.420Z,22.42
2018-12-25T23:32:53.116Z,22.43
2018-12-25T23:35:21.669Z,22.45
2018-12-25T23:37:46.393Z,22.46
2018-12-25T23:40:13.051Z,22.47
2018-12-25T23:42:39.708Z,22.50
2018-12-25T23:45:06.422Z,22.51
2018-12-25T23:47:33.067Z,22.50
2018-12-25T23:49:59.697Z,22.54
2018-12-25T23:52:26.357Z,22.54
2018-12-25T23:54:52.996Z,22.53
2018-12-25T23:57:19.651Z,22.57
2018-12-25T23:59:46.432Z,22.53
